sensor_id;sensor_type;location;lat;lon;timestamp;P1;durP1;ratioP1;P2;durP2;ratioP2
42754;SDS011;28407;51.830;5.684;2023-06-22T00:00:12;4.13;;;2.75;;
42754;SDS011;28407;51.830;5.684;2023-06-22T00:02:12;1.00;;;0.70;;
42754;SDS011;28407;51.830;5.684;2023-06-22T00:04:13;2.25;;;1.05;;
42754;SDS011;28407;51.830;5.684;2023-06-22T00:06:14;2.33;;;1.20;;
42754;SDS011;28407;51.830;5.684;2023-06-22T00:08:16;2.95;;;1.50;;
42754;SDS011;28407;51.830;5.684;2023-06-22T00:10:17;1.55;;;1.00;;
42754;SDS011;28407;51.830;5.684;2023-06-22T00:12:18;1.77;;;1.13;;
42754;SDS011;28407;51.830;5.684;2023-06-22T00:14:18;2.13;;;1.17;;
42754;SDS011;28407;51.830;5.684;2023-06-22T00:16:19;2.90;;;1.75;;
42754;SDS011;28407;51.830;5.684;2023-06-22T00:18:20;2.35;;;1.52;;
42754;SDS011;28407;51.830;5.684;2023-06-22T00:20:20;3.08;;;1.40;;
42754;SDS011;28407;51.830;5.684;2023-06-22T00:22:21;2.42;;;1.65;;
42754;SDS011;28407;51.830;5.684;2023-06-22T00:24:28;3.92;;;1.60;;
42754;SDS011;28407;51.830;5.684;2023-06-22T00:26:29;2.28;;;1.40;;
42754;SDS011;28407;51.830;5.684;2023-06-22T00:28:30;1.90;;;1.20;;
42754;SDS011;28407;51.830;5.684;2023-06-22T00:30:30;2.58;;;1.27;;
42754;SDS011;28407;51.830;5.684;2023-06-22T00:32:32;1.77;;;1.02;;
42754;SDS011;28407;51.830;5.684;2023-06-22T00:34:32;3.83;;;1.73;;
42754;SDS011;28407;51.830;5.684;2023-06-22T00:36:33;3.22;;;1.73;;
42754;SDS011;28407;51.830;5.684;2023-06-22T00:38:34;2.92;;;1.67;;
42754;SDS011;28407;51.830;5.684;2023-06-22T00:40:42;2.95;;;1.83;;
42754;SDS011;28407;51.830;5.684;2023-06-22T00:42:43;3.13;;;1.70;;
42754;SDS011;28407;51.830;5.684;2023-06-22T00:44:43;3.03;;;1.70;;
42754;SDS011;28407;51.830;5.684;2023-06-22T00:46:44;2.85;;;1.60;;
42754;SDS011;28407;51.830;5.684;2023-06-22T00:48:45;1.90;;;1.20;;
42754;SDS011;28407;51.830;5.684;2023-06-22T00:50:46;2.92;;;1.45;;
42754;SDS011;28407;51.830;5.684;2023-06-22T00:52:51;2.03;;;1.20;;
42754;SDS011;28407;51.830;5.684;2023-06-22T00:54:53;2.20;;;1.30;;
42754;SDS011;28407;51.830;5.684;2023-06-22T00:56:54;3.27;;;2.07;;
42754;SDS011;28407;51.830;5.684;2023-06-22T00:58:56;2.22;;;1.25;;
42754;SDS011;28407;51.830;5.684;2023-06-22T01:00:59;2.13;;;1.20;;
42754;SDS011;28407;51.830;5.684;2023-06-22T01:03:01;2.63;;;1.77;;
42754;SDS011;28407;51.830;5.684;2023-06-22T01:05:03;3.13;;;1.58;;
42754;SDS011;28407;51.830;5.684;2023-06-22T01:09:20;3.00;;;1.85;;
42754;SDS011;28407;51.830;5.684;2023-06-22T01:11:45;3.70;;;1.63;;
42754;SDS011;28407;51.830;5.684;2023-06-22T01:16:31;3.22;;;1.52;;
42754;SDS011;28407;51.830;5.684;2023-06-22T01:18:35;2.50;;;1.48;;
42754;SDS011;28407;51.830;5.684;2023-06-22T01:20:37;2.40;;;1.67;;
42754;SDS011;28407;51.830;5.684;2023-06-22T01:25:11;2.47;;;1.35;;
42754;SDS011;28407;51.830;5.684;2023-06-22T01:27:32;4.30;;;2.30;;
42754;SDS011;28407;51.830;5.684;2023-06-22T01:29:45;3.42;;;1.70;;
42754;SDS011;28407;51.830;5.684;2023-06-22T01:31:46;3.23;;;2.10;;
42754;SDS011;28407;51.830;5.684;2023-06-22T01:33:59;3.00;;;2.08;;
42754;SDS011;28407;51.830;5.684;2023-06-22T01:36:03;3.55;;;2.20;;
42754;SDS011;28407;51.830;5.684;2023-06-22T01:38:04;3.60;;;2.17;;
42754;SDS011;28407;51.830;5.684;2023-06-22T01:40:06;3.33;;;1.90;;
42754;SDS011;28407;51.830;5.684;2023-06-22T01:44:09;2.08;;;1.35;;
42754;SDS011;28407;51.830;5.684;2023-06-22T01:46:11;2.92;;;1.85;;
42754;SDS011;28407;51.830;5.684;2023-06-22T01:48:12;2.47;;;1.48;;
42754;SDS011;28407;51.830;5.684;2023-06-22T01:50:13;2.30;;;1.33;;
42754;SDS011;28407;51.830;5.684;2023-06-22T01:52:14;2.42;;;1.75;;
42754;SDS011;28407;51.830;5.684;2023-06-22T01:54:15;2.53;;;1.50;;
42754;SDS011;28407;51.830;5.684;2023-06-22T01:56:16;3.15;;;1.80;;
42754;SDS011;28407;51.830;5.684;2023-06-22T01:58:18;2.70;;;1.48;;
42754;SDS011;28407;51.830;5.684;2023-06-22T02:00:21;2.55;;;1.50;;
42754;SDS011;28407;51.830;5.684;2023-06-22T02:02:24;3.92;;;1.70;;
42754;SDS011;28407;51.830;5.684;2023-06-22T02:04:51;2.85;;;1.92;;
42754;SDS011;28407;51.830;5.684;2023-06-22T02:06:56;3.00;;;1.45;;
42754;SDS011;28407;51.830;5.684;2023-06-22T02:08:59;2.63;;;1.75;;
42754;SDS011;28407;51.830;5.684;2023-06-22T02:11:02;4.95;;;1.58;;
42754;SDS011;28407;51.830;5.684;2023-06-22T02:13:06;2.67;;;1.65;;
42754;SDS011;28407;51.830;5.684;2023-06-22T02:15:08;3.50;;;1.60;;
42754;SDS011;28407;51.830;5.684;2023-06-22T02:17:10;3.88;;;1.65;;
42754;SDS011;28407;51.830;5.684;2023-06-22T02:19:11;3.03;;;1.70;;
42754;SDS011;28407;51.830;5.684;2023-06-22T02:21:11;2.20;;;1.45;;
42754;SDS011;28407;51.830;5.684;2023-06-22T02:23:12;2.67;;;1.60;;
42754;SDS011;28407;51.830;5.684;2023-06-22T02:25:12;3.78;;;2.00;;
42754;SDS011;28407;51.830;5.684;2023-06-22T02:27:14;2.92;;;1.60;;
42754;SDS011;28407;51.830;5.684;2023-06-22T02:29:15;2.97;;;1.23;;
42754;SDS011;28407;51.830;5.684;2023-06-22T02:31:17;2.20;;;1.42;;
42754;SDS011;28407;51.830;5.684;2023-06-22T02:33:17;2.37;;;1.40;;
42754;SDS011;28407;51.830;5.684;2023-06-22T02:35:20;2.67;;;1.70;;
42754;SDS011;28407;51.830;5.684;2023-06-22T02:37:21;1.48;;;1.10;;
42754;SDS011;28407;51.830;5.684;2023-06-22T02:39:25;4.13;;;1.80;;
42754;SDS011;28407;51.830;5.684;2023-06-22T02:41:25;2.40;;;1.30;;
42754;SDS011;28407;51.830;5.684;2023-06-22T02:43:26;2.15;;;1.48;;
42754;SDS011;28407;51.830;5.684;2023-06-22T02:45:27;2.70;;;1.50;;
42754;SDS011;28407;51.830;5.684;2023-06-22T02:47:28;2.67;;;1.40;;
42754;SDS011;28407;51.830;5.684;2023-06-22T02:49:29;2.35;;;1.30;;
42754;SDS011;28407;51.830;5.684;2023-06-22T02:51:30;2.60;;;1.50;;
42754;SDS011;28407;51.830;5.684;2023-06-22T02:53:34;2.33;;;1.60;;
42754;SDS011;28407;51.830;5.684;2023-06-22T02:55:34;3.22;;;1.98;;
42754;SDS011;28407;51.830;5.684;2023-06-22T02:57:35;2.83;;;1.40;;
42754;SDS011;28407;51.830;5.684;2023-06-22T02:59:36;2.83;;;1.40;;
42754;SDS011;28407;51.830;5.684;2023-06-22T03:01:43;2.72;;;1.40;;
42754;SDS011;28407;51.830;5.684;2023-06-22T03:03:52;3.03;;;1.50;;
42754;SDS011;28407;51.830;5.684;2023-06-22T03:05:53;2.53;;;1.45;;
42754;SDS011;28407;51.830;5.684;2023-06-22T03:07:56;2.88;;;1.80;;
42754;SDS011;28407;51.830;5.684;2023-06-22T03:09:56;2.63;;;1.58;;
42754;SDS011;28407;51.830;5.684;2023-06-22T03:11:57;3.47;;;1.75;;
42754;SDS011;28407;51.830;5.684;2023-06-22T03:14:02;3.13;;;1.60;;
42754;SDS011;28407;51.830;5.684;2023-06-22T03:16:02;2.78;;;1.70;;
42754;SDS011;28407;51.830;5.684;2023-06-22T03:18:03;3.05;;;1.60;;
42754;SDS011;28407;51.830;5.684;2023-06-22T03:20:05;3.33;;;1.55;;
42754;SDS011;28407;51.830;5.684;2023-06-22T03:22:09;2.53;;;1.48;;
42754;SDS011;28407;51.830;5.684;2023-06-22T03:24:09;2.13;;;1.35;;
42754;SDS011;28407;51.830;5.684;2023-06-22T03:26:10;2.83;;;1.38;;
42754;SDS011;28407;51.830;5.684;2023-06-22T03:28:11;2.08;;;1.40;;
42754;SDS011;28407;51.830;5.684;2023-06-22T03:30:11;2.95;;;1.77;;
42754;SDS011;28407;51.830;5.684;2023-06-22T03:32:12;2.40;;;1.50;;
42754;SDS011;28407;51.830;5.684;2023-06-22T03:34:13;2.88;;;1.88;;
42754;SDS011;28407;51.830;5.684;2023-06-22T03:36:14;3.00;;;1.83;;
42754;SDS011;28407;51.830;5.684;2023-06-22T03:38:19;4.18;;;2.35;;
42754;SDS011;28407;51.830;5.684;2023-06-22T03:40:19;2.70;;;1.95;;
42754;SDS011;28407;51.830;5.684;2023-06-22T03:42:20;3.67;;;1.70;;
42754;SDS011;28407;51.830;5.684;2023-06-22T03:44:21;3.72;;;1.90;;
42754;SDS011;28407;51.830;5.684;2023-06-22T03:46:21;2.55;;;1.77;;
42754;SDS011;28407;51.830;5.684;2023-06-22T03:48:22;2.47;;;1.50;;
42754;SDS011;28407;51.830;5.684;2023-06-22T03:50:23;3.47;;;1.58;;
42754;SDS011;28407;51.830;5.684;2023-06-22T03:52:23;2.58;;;1.65;;
42754;SDS011;28407;51.830;5.684;2023-06-22T03:54:25;2.63;;;1.58;;
42754;SDS011;28407;51.830;5.684;2023-06-22T03:56:25;5.47;;;1.75;;
42754;SDS011;28407;51.830;5.684;2023-06-22T03:58:26;2.15;;;1.50;;
42754;SDS011;28407;51.830;5.684;2023-06-22T04:00:27;2.38;;;1.55;;
42754;SDS011;28407;51.830;5.684;2023-06-22T04:02:28;2.38;;;1.52;;
42754;SDS011;28407;51.830;5.684;2023-06-22T04:04:29;3.13;;;1.77;;
42754;SDS011;28407;51.830;5.684;2023-06-22T04:06:29;2.97;;;1.55;;
42754;SDS011;28407;51.830;5.684;2023-06-22T04:08:30;2.80;;;1.60;;
42754;SDS011;28407;51.830;5.684;2023-06-22T04:10:31;4.45;;;1.90;;
42754;SDS011;28407;51.830;5.684;2023-06-22T04:12:32;2.60;;;1.60;;
42754;SDS011;28407;51.830;5.684;2023-06-22T04:14:32;3.30;;;1.52;;
42754;SDS011;28407;51.830;5.684;2023-06-22T04:16:33;3.05;;;1.85;;
42754;SDS011;28407;51.830;5.684;2023-06-22T04:18:33;2.58;;;1.63;;
42754;SDS011;28407;51.830;5.684;2023-06-22T04:20:34;2.88;;;1.27;;
42754;SDS011;28407;51.830;5.684;2023-06-22T04:22:35;4.60;;;1.50;;
42754;SDS011;28407;51.830;5.684;2023-06-22T04:24:35;3.40;;;1.90;;
42754;SDS011;28407;51.830;5.684;2023-06-22T04:26:36;3.03;;;1.70;;
42754;SDS011;28407;51.830;5.684;2023-06-22T04:28:37;2.37;;;1.40;;
42754;SDS011;28407;51.830;5.684;2023-06-22T04:30:38;2.45;;;1.35;;
42754;SDS011;28407;51.830;5.684;2023-06-22T04:32:46;2.50;;;1.40;;
42754;SDS011;28407;51.830;5.684;2023-06-22T04:34:56;2.40;;;1.40;;
42754;SDS011;28407;51.830;5.684;2023-06-22T04:36:56;4.70;;;2.08;;
42754;SDS011;28407;51.830;5.684;2023-06-22T04:38:57;6.43;;;2.07;;
42754;SDS011;28407;51.830;5.684;2023-06-22T04:40:58;3.40;;;1.48;;
42754;SDS011;28407;51.830;5.684;2023-06-22T04:43:01;2.70;;;1.60;;
42754;SDS011;28407;51.830;5.684;2023-06-22T04:45:02;3.83;;;2.03;;
42754;SDS011;28407;51.830;5.684;2023-06-22T04:47:04;2.70;;;1.60;;
42754;SDS011;28407;51.830;5.684;2023-06-22T04:49:08;3.70;;;2.05;;
42754;SDS011;28407;51.830;5.684;2023-06-22T04:51:12;3.33;;;1.77;;
42754;SDS011;28407;51.830;5.684;2023-06-22T04:53:12;2.30;;;1.70;;
42754;SDS011;28407;51.830;5.684;2023-06-22T04:55:14;2.80;;;1.70;;
42754;SDS011;28407;51.830;5.684;2023-06-22T04:57:18;3.05;;;1.67;;
42754;SDS011;28407;51.830;5.684;2023-06-22T04:59:18;2.92;;;1.58;;
42754;SDS011;28407;51.830;5.684;2023-06-22T05:01:19;3.92;;;2.03;;
42754;SDS011;28407;51.830;5.684;2023-06-22T05:03:22;4.78;;;2.20;;
42754;SDS011;28407;51.830;5.684;2023-06-22T05:05:25;3.38;;;1.70;;
42754;SDS011;28407;51.830;5.684;2023-06-22T05:07:26;3.88;;;2.30;;
42754;SDS011;28407;51.830;5.684;2023-06-22T05:09:27;3.35;;;2.42;;
42754;SDS011;28407;51.830;5.684;2023-06-22T05:11:28;3.58;;;1.95;;
42754;SDS011;28407;51.830;5.684;2023-06-22T05:13:29;3.67;;;2.53;;
42754;SDS011;28407;51.830;5.684;2023-06-22T05:15:30;3.30;;;2.28;;
42754;SDS011;28407;51.830;5.684;2023-06-22T05:17:37;4.75;;;2.40;;
42754;SDS011;28407;51.830;5.684;2023-06-22T05:19:42;4.10;;;2.63;;
42754;SDS011;28407;51.830;5.684;2023-06-22T05:21:48;2.85;;;2.03;;
42754;SDS011;28407;51.830;5.684;2023-06-22T05:23:48;4.47;;;2.45;;
42754;SDS011;28407;51.830;5.684;2023-06-22T05:25:51;5.35;;;3.92;;
42754;SDS011;28407;51.830;5.684;2023-06-22T05:29:52;3.10;;;2.30;;
42754;SDS011;28407;51.830;5.684;2023-06-22T05:31:52;4.38;;;2.67;;
42754;SDS011;28407;51.830;5.684;2023-06-22T05:33:53;4.38;;;2.63;;
42754;SDS011;28407;51.830;5.684;2023-06-22T05:35:55;6.40;;;3.45;;
42754;SDS011;28407;51.830;5.684;2023-06-22T05:37:55;4.70;;;2.45;;
42754;SDS011;28407;51.830;5.684;2023-06-22T05:39:56;4.03;;;2.30;;
42754;SDS011;28407;51.830;5.684;2023-06-22T05:41:57;3.35;;;2.28;;
42754;SDS011;28407;51.830;5.684;2023-06-22T05:43:58;7.35;;;4.60;;
42754;SDS011;28407;51.830;5.684;2023-06-22T05:45:59;5.25;;;3.80;;
42754;SDS011;28407;51.830;5.684;2023-06-22T05:48:00;4.90;;;3.05;;
42754;SDS011;28407;51.830;5.684;2023-06-22T05:50:01;4.90;;;3.55;;
42754;SDS011;28407;51.830;5.684;2023-06-22T05:52:06;6.28;;;3.50;;
42754;SDS011;28407;51.830;5.684;2023-06-22T05:54:07;4.70;;;3.67;;
42754;SDS011;28407;51.830;5.684;2023-06-22T05:56:08;4.85;;;3.45;;
42754;SDS011;28407;51.830;5.684;2023-06-22T05:58:09;6.22;;;3.53;;
42754;SDS011;28407;51.830;5.684;2023-06-22T06:00:10;4.50;;;3.22;;
42754;SDS011;28407;51.830;5.684;2023-06-22T06:02:11;5.55;;;4.13;;
42754;SDS011;28407;51.830;5.684;2023-06-22T06:04:12;5.50;;;4.22;;
42754;SDS011;28407;51.830;5.684;2023-06-22T06:06:13;6.03;;;4.22;;
42754;SDS011;28407;51.830;5.684;2023-06-22T06:08:13;5.43;;;3.72;;
42754;SDS011;28407;51.830;5.684;2023-06-22T06:10:14;6.10;;;3.28;;
42754;SDS011;28407;51.830;5.684;2023-06-22T06:12:15;4.97;;;3.60;;
42754;SDS011;28407;51.830;5.684;2023-06-22T06:14:15;4.78;;;3.30;;
42754;SDS011;28407;51.830;5.684;2023-06-22T06:16:17;5.60;;;3.53;;
42754;SDS011;28407;51.830;5.684;2023-06-22T06:18:17;5.82;;;4.68;;
42754;SDS011;28407;51.830;5.684;2023-06-22T06:20:19;5.65;;;3.92;;
42754;SDS011;28407;51.830;5.684;2023-06-22T06:22:21;8.00;;;6.65;;
42754;SDS011;28407;51.830;5.684;2023-06-22T06:24:23;7.75;;;5.32;;
42754;SDS011;28407;51.830;5.684;2023-06-22T06:26:24;5.85;;;3.92;;
42754;SDS011;28407;51.830;5.684;2023-06-22T06:28:29;4.60;;;3.40;;
42754;SDS011;28407;51.830;5.684;2023-06-22T06:30:30;6.03;;;3.67;;
42754;SDS011;28407;51.830;5.684;2023-06-22T06:32:31;5.25;;;3.78;;
42754;SDS011;28407;51.830;5.684;2023-06-22T06:34:31;6.45;;;4.30;;
42754;SDS011;28407;51.830;5.684;2023-06-22T06:36:32;5.97;;;3.85;;
42754;SDS011;28407;51.830;5.684;2023-06-22T06:38:32;5.72;;;4.18;;
42754;SDS011;28407;51.830;5.684;2023-06-22T06:40:33;4.65;;;3.55;;
42754;SDS011;28407;51.830;5.684;2023-06-22T06:42:34;4.97;;;2.97;;
42754;SDS011;28407;51.830;5.684;2023-06-22T06:44:34;4.65;;;3.05;;
42754;SDS011;28407;51.830;5.684;2023-06-22T06:46:37;5.05;;;3.65;;
42754;SDS011;28407;51.830;5.684;2023-06-22T06:48:38;5.65;;;3.30;;
42754;SDS011;28407;51.830;5.684;2023-06-22T06:50:39;5.20;;;3.22;;
42754;SDS011;28407;51.830;5.684;2023-06-22T06:52:40;5.03;;;3.28;;
42754;SDS011;28407;51.830;5.684;2023-06-22T06:54:41;5.82;;;3.53;;
42754;SDS011;28407;51.830;5.684;2023-06-22T06:56:42;5.18;;;3.50;;
42754;SDS011;28407;51.830;5.684;2023-06-22T06:58:49;4.85;;;3.72;;
42754;SDS011;28407;51.830;5.684;2023-06-22T07:00:51;5.13;;;3.28;;
42754;SDS011;28407;51.830;5.684;2023-06-22T07:02:52;7.13;;;4.28;;
42754;SDS011;28407;51.830;5.684;2023-06-22T07:04:53;5.25;;;4.03;;
42754;SDS011;28407;51.830;5.684;2023-06-22T07:06:55;5.03;;;3.38;;
42754;SDS011;28407;51.830;5.684;2023-06-22T07:08:56;3.95;;;2.72;;
42754;SDS011;28407;51.830;5.684;2023-06-22T07:10:56;5.93;;;3.85;;
42754;SDS011;28407;51.830;5.684;2023-06-22T07:12:57;6.15;;;3.22;;
42754;SDS011;28407;51.830;5.684;2023-06-22T07:15:04;5.22;;;3.30;;
42754;SDS011;28407;51.830;5.684;2023-06-22T07:17:08;4.40;;;3.17;;
42754;SDS011;28407;51.830;5.684;2023-06-22T07:19:10;5.15;;;3.22;;
42754;SDS011;28407;51.830;5.684;2023-06-22T07:21:11;7.32;;;4.03;;
42754;SDS011;28407;51.830;5.684;2023-06-22T07:23:12;5.00;;;3.47;;
42754;SDS011;28407;51.830;5.684;2023-06-22T07:25:13;4.75;;;3.60;;
42754;SDS011;28407;51.830;5.684;2023-06-22T07:27:17;5.53;;;4.20;;
42754;SDS011;28407;51.830;5.684;2023-06-22T07:29:19;4.28;;;3.00;;
42754;SDS011;28407;51.830;5.684;2023-06-22T07:33:21;3.83;;;2.60;;
42754;SDS011;28407;51.830;5.684;2023-06-22T07:35:22;5.70;;;3.85;;
42754;SDS011;28407;51.830;5.684;2023-06-22T07:37:22;8.48;;;4.57;;
42754;SDS011;28407;51.830;5.684;2023-06-22T07:39:23;6.00;;;4.20;;
42754;SDS011;28407;51.830;5.684;2023-06-22T07:41:26;5.03;;;3.88;;
42754;SDS011;28407;51.830;5.684;2023-06-22T07:43:27;5.40;;;4.22;;
42754;SDS011;28407;51.830;5.684;2023-06-22T07:45:29;4.15;;;3.10;;
42754;SDS011;28407;51.830;5.684;2023-06-22T07:47:30;4.80;;;4.00;;
42754;SDS011;28407;51.830;5.684;2023-06-22T07:49:30;4.68;;;3.42;;
42754;SDS011;28407;51.830;5.684;2023-06-22T07:51:31;4.85;;;3.08;;
42754;SDS011;28407;51.830;5.684;2023-06-22T07:53:31;5.43;;;3.80;;
42754;SDS011;28407;51.830;5.684;2023-06-22T07:55:32;5.13;;;3.72;;
42754;SDS011;28407;51.830;5.684;2023-06-22T07:57:33;4.60;;;3.35;;
42754;SDS011;28407;51.830;5.684;2023-06-22T07:59:34;6.55;;;3.38;;
42754;SDS011;28407;51.830;5.684;2023-06-22T08:01:34;6.57;;;3.35;;
42754;SDS011;28407;51.830;5.684;2023-06-22T08:03:35;3.85;;;2.55;;
42754;SDS011;28407;51.830;5.684;2023-06-22T08:05:35;4.75;;;3.17;;
42754;SDS011;28407;51.830;5.684;2023-06-22T08:07:36;4.22;;;3.20;;
42754;SDS011;28407;51.830;5.684;2023-06-22T08:09:37;5.45;;;4.05;;
42754;SDS011;28407;51.830;5.684;2023-06-22T08:11:38;4.40;;;3.35;;
42754;SDS011;28407;51.830;5.684;2023-06-22T08:13:39;4.57;;;3.50;;
42754;SDS011;28407;51.830;5.684;2023-06-22T08:15:39;6.20;;;3.67;;
42754;SDS011;28407;51.830;5.684;2023-06-22T08:17:40;5.55;;;3.40;;
42754;SDS011;28407;51.830;5.684;2023-06-22T08:19:41;5.57;;;3.15;;
42754;SDS011;28407;51.830;5.684;2023-06-22T08:21:42;4.43;;;3.08;;
42754;SDS011;28407;51.830;5.684;2023-06-22T08:23:43;4.30;;;3.13;;
42754;SDS011;28407;51.830;5.684;2023-06-22T08:25:43;4.82;;;2.85;;
42754;SDS011;28407;51.830;5.684;2023-06-22T08:27:45;4.45;;;3.78;;
42754;SDS011;28407;51.830;5.684;2023-06-22T08:29:49;4.32;;;2.72;;
42754;SDS011;28407;51.830;5.684;2023-06-22T08:31:50;3.83;;;2.90;;
42754;SDS011;28407;51.830;5.684;2023-06-22T08:33:51;6.10;;;3.72;;
42754;SDS011;28407;51.830;5.684;2023-06-22T08:35:52;4.88;;;3.15;;
42754;SDS011;28407;51.830;5.684;2023-06-22T08:37:52;6.45;;;4.00;;
42754;SDS011;28407;51.830;5.684;2023-06-22T08:39:54;5.20;;;3.45;;
42754;SDS011;28407;51.830;5.684;2023-06-22T08:41:54;4.15;;;2.90;;
42754;SDS011;28407;51.830;5.684;2023-06-22T08:43:55;5.15;;;3.28;;
42754;SDS011;28407;51.830;5.684;2023-06-22T08:45:56;4.13;;;2.80;;
42754;SDS011;28407;51.830;5.684;2023-06-22T08:47:56;6.32;;;2.97;;
42754;SDS011;28407;51.830;5.684;2023-06-22T08:49:57;4.18;;;3.03;;
42754;SDS011;28407;51.830;5.684;2023-06-22T08:51:58;4.60;;;2.97;;
42754;SDS011;28407;51.830;5.684;2023-06-22T08:53:58;4.47;;;3.13;;
42754;SDS011;28407;51.830;5.684;2023-06-22T08:55:59;3.95;;;2.72;;
42754;SDS011;28407;51.830;5.684;2023-06-22T08:58:00;5.68;;;3.58;;
42754;SDS011;28407;51.830;5.684;2023-06-22T09:00:00;4.47;;;3.40;;
42754;SDS011;28407;51.830;5.684;2023-06-22T09:02:01;4.80;;;3.03;;
42754;SDS011;28407;51.830;5.684;2023-06-22T09:04:01;5.00;;;3.40;;
42754;SDS011;28407;51.830;5.684;2023-06-22T09:08:04;4.90;;;2.88;;
42754;SDS011;28407;51.830;5.684;2023-06-22T09:10:05;5.65;;;3.53;;
42754;SDS011;28407;51.830;5.684;2023-06-22T09:12:06;4.05;;;2.78;;
42754;SDS011;28407;51.830;5.684;2023-06-22T09:14:08;3.53;;;2.45;;
42754;SDS011;28407;51.830;5.684;2023-06-22T09:16:09;4.45;;;2.58;;
42754;SDS011;28407;51.830;5.684;2023-06-22T09:18:10;5.90;;;2.83;;
42754;SDS011;28407;51.830;5.684;2023-06-22T09:20:12;3.00;;;2.20;;
42754;SDS011;28407;51.830;5.684;2023-06-22T09:22:12;4.00;;;2.65;;
42754;SDS011;28407;51.830;5.684;2023-06-22T09:24:13;5.60;;;2.90;;
42754;SDS011;28407;51.830;5.684;2023-06-22T09:26:14;4.55;;;2.53;;
42754;SDS011;28407;51.830;5.684;2023-06-22T09:28:14;2.85;;;2.17;;
42754;SDS011;28407;51.830;5.684;2023-06-22T09:30:15;3.95;;;3.10;;
42754;SDS011;28407;51.830;5.684;2023-06-22T09:32:16;2.87;;;2.23;;
42754;SDS011;28407;51.830;5.684;2023-06-22T09:34:16;4.03;;;2.80;;
42754;SDS011;28407;51.830;5.684;2023-06-22T09:36:20;4.50;;;2.63;;
42754;SDS011;28407;51.830;5.684;2023-06-22T09:38:21;3.47;;;2.15;;
42754;SDS011;28407;51.830;5.684;2023-06-22T09:40:22;7.75;;;2.85;;
42754;SDS011;28407;51.830;5.684;2023-06-22T09:42:22;3.60;;;2.30;;
42754;SDS011;28407;51.830;5.684;2023-06-22T09:44:23;4.50;;;1.90;;
42754;SDS011;28407;51.830;5.684;2023-06-22T09:46:24;4.18;;;2.42;;
42754;SDS011;28407;51.830;5.684;2023-06-22T09:48:28;4.22;;;2.28;;
42754;SDS011;28407;51.830;5.684;2023-06-22T09:50:30;8.07;;;3.38;;
42754;SDS011;28407;51.830;5.684;2023-06-22T09:52:30;3.72;;;1.90;;
42754;SDS011;28407;51.830;5.684;2023-06-22T09:54:31;3.58;;;1.85;;
42754;SDS011;28407;51.830;5.684;2023-06-22T09:56:32;3.33;;;2.10;;
42754;SDS011;28407;51.830;5.684;2023-06-22T09:58:32;3.05;;;2.17;;
42754;SDS011;28407;51.830;5.684;2023-06-22T10:00:33;2.75;;;1.95;;
42754;SDS011;28407;51.830;5.684;2023-06-22T10:02:34;2.58;;;1.70;;
42754;SDS011;28407;51.830;5.684;2023-06-22T10:04:35;2.58;;;1.50;;
42754;SDS011;28407;51.830;5.684;2023-06-22T10:06:36;2.70;;;1.77;;
42754;SDS011;28407;51.830;5.684;2023-06-22T10:08:36;2.88;;;1.77;;
42754;SDS011;28407;51.830;5.684;2023-06-22T10:10:37;2.80;;;1.90;;
42754;SDS011;28407;51.830;5.684;2023-06-22T10:12:41;2.80;;;1.67;;
42754;SDS011;28407;51.830;5.684;2023-06-22T10:14:46;2.65;;;1.63;;
42754;SDS011;28407;51.830;5.684;2023-06-22T10:16:47;1.88;;;1.02;;
42754;SDS011;28407;51.830;5.684;2023-06-22T10:18:48;3.17;;;1.58;;
42754;SDS011;28407;51.830;5.684;2023-06-22T10:20:49;2.72;;;1.48;;
42754;SDS011;28407;51.830;5.684;2023-06-22T10:22:53;3.22;;;1.38;;
42754;SDS011;28407;51.830;5.684;2023-06-22T10:24:54;2.70;;;1.65;;
42754;SDS011;28407;51.830;5.684;2023-06-22T10:26:55;2.22;;;1.30;;
42754;SDS011;28407;51.830;5.684;2023-06-22T10:28:55;2.55;;;1.50;;
42754;SDS011;28407;51.830;5.684;2023-06-22T10:30:56;2.55;;;1.67;;
42754;SDS011;28407;51.830;5.684;2023-06-22T10:32:56;2.58;;;1.65;;
42754;SDS011;28407;51.830;5.684;2023-06-22T10:34:57;2.92;;;1.52;;
42754;SDS011;28407;51.830;5.684;2023-06-22T10:36:58;2.60;;;1.20;;
42754;SDS011;28407;51.830;5.684;2023-06-22T10:38:58;4.13;;;1.45;;
42754;SDS011;28407;51.830;5.684;2023-06-22T10:40:59;2.72;;;1.40;;
42754;SDS011;28407;51.830;5.684;2023-06-22T10:43:00;3.60;;;1.40;;
42754;SDS011;28407;51.830;5.684;2023-06-22T10:45:00;2.27;;;1.20;;
42754;SDS011;28407;51.830;5.684;2023-06-22T10:47:01;2.67;;;1.85;;
42754;SDS011;28407;51.830;5.684;2023-06-22T10:49:02;3.75;;;1.75;;
42754;SDS011;28407;51.830;5.684;2023-06-22T10:51:02;2.22;;;1.45;;
42754;SDS011;28407;51.830;5.684;2023-06-22T10:53:03;2.87;;;1.47;;
42754;SDS011;28407;51.830;5.684;2023-06-22T10:55:04;2.80;;;1.58;;
42754;SDS011;28407;51.830;5.684;2023-06-22T10:57:05;2.08;;;1.27;;
42754;SDS011;28407;51.830;5.684;2023-06-22T10:59:06;2.08;;;1.23;;
42754;SDS011;28407;51.830;5.684;2023-06-22T11:01:07;2.53;;;1.30;;
42754;SDS011;28407;51.830;5.684;2023-06-22T11:03:07;2.92;;;1.63;;
42754;SDS011;28407;51.830;5.684;2023-06-22T11:05:08;2.58;;;1.38;;
42754;SDS011;28407;51.830;5.684;2023-06-22T11:07:09;3.65;;;1.33;;
42754;SDS011;28407;51.830;5.684;2023-06-22T11:09:09;3.13;;;1.33;;
42754;SDS011;28407;51.830;5.684;2023-06-22T11:11:10;2.47;;;1.27;;
42754;SDS011;28407;51.830;5.684;2023-06-22T11:13:11;3.53;;;1.23;;
42754;SDS011;28407;51.830;5.684;2023-06-22T11:15:11;1.87;;;1.07;;
42754;SDS011;28407;51.830;5.684;2023-06-22T11:17:12;2.05;;;0.95;;
42754;SDS011;28407;51.830;5.684;2023-06-22T11:19:13;2.58;;;1.30;;
42754;SDS011;28407;51.830;5.684;2023-06-22T11:21:13;3.10;;;1.23;;
42754;SDS011;28407;51.830;5.684;2023-06-22T11:23:14;3.10;;;1.50;;
42754;SDS011;28407;51.830;5.684;2023-06-22T11:25:15;2.70;;;1.60;;
42754;SDS011;28407;51.830;5.684;2023-06-22T11:27:15;3.03;;;1.75;;
42754;SDS011;28407;51.830;5.684;2023-06-22T11:29:16;3.30;;;1.43;;
42754;SDS011;28407;51.830;5.684;2023-06-22T11:31:16;2.33;;;1.13;;
42754;SDS011;28407;51.830;5.684;2023-06-22T11:33:17;3.50;;;2.00;;
42754;SDS011;28407;51.830;5.684;2023-06-22T11:35:18;3.45;;;1.48;;
42754;SDS011;28407;51.830;5.684;2023-06-22T11:37:18;2.95;;;1.88;;
42754;SDS011;28407;51.830;5.684;2023-06-22T11:39:19;3.00;;;1.80;;
42754;SDS011;28407;51.830;5.684;2023-06-22T11:41:20;3.13;;;2.03;;
42754;SDS011;28407;51.830;5.684;2023-06-22T11:43:20;3.15;;;1.65;;
42754;SDS011;28407;51.830;5.684;2023-06-22T11:45:21;2.85;;;1.67;;
42754;SDS011;28407;51.830;5.684;2023-06-22T11:47:22;3.15;;;2.05;;
42754;SDS011;28407;51.830;5.684;2023-06-22T11:49:22;2.90;;;1.75;;
42754;SDS011;28407;51.830;5.684;2023-06-22T11:51:23;5.30;;;2.63;;
42754;SDS011;28407;51.830;5.684;2023-06-22T11:53:24;4.63;;;2.45;;
42754;SDS011;28407;51.830;5.684;2023-06-22T11:55:26;3.85;;;2.17;;
42754;SDS011;28407;51.830;5.684;2023-06-22T11:57:26;2.92;;;1.85;;
42754;SDS011;28407;51.830;5.684;2023-06-22T11:59:27;1.90;;;1.38;;
42754;SDS011;28407;51.830;5.684;2023-06-22T12:01:27;3.70;;;2.55;;
42754;SDS011;28407;51.830;5.684;2023-06-22T12:03:28;3.25;;;2.15;;
42754;SDS011;28407;51.830;5.684;2023-06-22T12:05:30;3.17;;;2.03;;
42754;SDS011;28407;51.830;5.684;2023-06-22T12:07:30;2.25;;;1.50;;
42754;SDS011;28407;51.830;5.684;2023-06-22T12:09:32;2.95;;;1.90;;
42754;SDS011;28407;51.830;5.684;2023-06-22T12:11:33;3.25;;;2.63;;
42754;SDS011;28407;51.830;5.684;2023-06-22T12:13:33;4.13;;;2.20;;
42754;SDS011;28407;51.830;5.684;2023-06-22T12:15:34;3.13;;;2.47;;
42754;SDS011;28407;51.830;5.684;2023-06-22T12:17:35;4.55;;;2.88;;
42754;SDS011;28407;51.830;5.684;2023-06-22T12:19:35;4.25;;;2.35;;
42754;SDS011;28407;51.830;5.684;2023-06-22T12:21:37;4.97;;;2.45;;
42754;SDS011;28407;51.830;5.684;2023-06-22T12:23:37;3.33;;;2.38;;
42754;SDS011;28407;51.830;5.684;2023-06-22T12:25:38;4.22;;;2.55;;
42754;SDS011;28407;51.830;5.684;2023-06-22T12:27:39;4.20;;;2.75;;